createdAt,value
2019-04-11T00:00:55.417Z,69.77
2019-04-11T00:04:06.122Z,69.21
2019-04-11T00:07:14.652Z,68.92
2019-04-11T00:10:35.503Z,69.93
2019-04-11T00:13:44.236Z,69.45
2019-04-11T00:16:53.343Z,69.80
2019-04-11T00:20:00.379Z,68.76
2019-04-11T00:23:08.121Z,70.04
2019-04-11T00:26:17.154Z,69.56
2019-04-11T00:29:26.712Z,69.07
2019-04-11T00:32:33.818Z,69.63
2019-04-11T00:35:41.867Z,69.58
2019-04-11T00:38:49.929Z,69.69
2019-04-11T00:41:56.985Z,70.05
2019-04-11T00:45:05.340Z,69.98
2019-04-11T00:48:14.433Z,70.17
2019-04-11T00:51:21.283Z,69.71
2019-04-11T00:54:29.005Z,70.72
2019-04-11T00:57:37.104Z,71.27
2019-04-11T01:00:45.288Z,70.14
2019-04-11T01:03:52.101Z,70.53
2019-04-11T01:06:59.064Z,70.96
2019-04-11T01:10:06.721Z,69.95
2019-04-11T01:13:20.857Z,70.67
2019-04-11T01:16:40.949Z,69.91
2019-04-11T01:19:48.955Z,70.48
2019-04-11T01:22:58.431Z,70.16
2019-04-11T01:26:06.122Z,70.30
2019-04-11T01:29:15.459Z,70.13
2019-04-11T01:32:22.751Z,70.93
2019-04-11T01:35:31.056Z,70.34
2019-04-11T01:38:44.497Z,71.47
2019-04-11T01:41:51.621Z,71.86
2019-04-11T01:44:58.574Z,71.20
2019-04-11T01:48:31.245Z,72.96
2019-04-11T01:51:38.496Z,72.05
2019-04-11T01:54:46.647Z,72.48
2019-04-11T01:57:54.117Z,71.62
2019-04-11T02:01:10.691Z,71.34
2019-04-11T02:04:37.022Z,71.75
2019-04-11T02:07:44.933Z,71.96
2019-04-11T02:10:52.904Z,72.66
2019-04-11T02:14:10.927Z,71.88
2019-04-11T02:17:08.845Z,72.71
2019-04-11T02:20:16.630Z,72.56
2019-04-11T02:23:33.594Z,71.69
2019-04-11T02:26:41.417Z,71.56
2019-04-11T02:29:49.570Z,71.62
2019-04-11T02:32:58.312Z,71.91
2019-04-11T02:36:07.199Z,71.82
2019-04-11T02:39:20.277Z,71.87
2019-04-11T02:42:27.697Z,73.24
2019-04-11T02:45:45.416Z,72.77
2019-04-11T02:48:44.935Z,72.35
2019-04-11T02:51:53.558Z,71.75
2019-04-11T02:55:01.191Z,71.83
2019-04-11T02:58:10.305Z,72.30
2019-04-11T03:01:21.865Z,71.34
2019-04-11T03:04:30.953Z,72.40
2019-04-11T03:07:38.169Z,71.57
2019-04-11T03:10:46.159Z,71.39
2019-04-11T03:13:55.231Z,72.39
2019-04-11T03:17:11.440Z,74.82
2019-04-11T03:20:23.061Z,75.50
2019-04-11T03:23:21.187Z,77.33
2019-04-11T03:26:29.301Z,77.71
2019-04-11T03:29:37.875Z,80.56
2019-04-11T03:33:54.479Z,82.69
2019-04-11T03:37:00.807Z,79.64
2019-04-11T03:39:21.784Z,79.48
2019-04-11T03:42:28.517Z,81.87
2019-04-11T03:45:44.184Z,79.72
2019-04-11T03:48:45.512Z,77.88
2019-04-11T03:51:41.454Z,78.90
2019-04-11T03:54:49.587Z,78.86
2019-04-11T03:57:59.156Z,81.94
2019-04-11T04:01:08.530Z,83.59
2019-04-11T04:04:19.325Z,79.91
2019-04-11T04:07:24.639Z,76.65
2019-04-11T04:10:34.095Z,79.92
2019-04-11T04:13:45.961Z,80.00
2019-04-11T04:17:30.783Z,78.83
2019-04-11T04:20:57.486Z,77.48
2019-04-11T04:24:08.496Z,77.74
2019-04-11T04:27:17.133Z,76.83
2019-04-11T04:30:24.820Z,76.19
2019-04-11T04:33:35.148Z,76.13
2019-04-11T04:36:42.335Z,77.17
2019-04-11T04:39:51.733Z,80.04
2019-04-11T04:43:01.210Z,76.24
2019-04-11T04:46:23.746Z,78.42
2019-04-11T04:49:18.541Z,77.52
2019-04-11T04:52:27.285Z,77.23
2019-04-11T04:55:34.859Z,77.48
2019-04-11T04:58:44.383Z,76.15
2019-04-11T05:01:53.085Z,75.96
2019-04-11T05:05:01.360Z,76.47
2019-04-11T05:08:10.755Z,75.39
2019-04-11T05:11:18.376Z,75.21
2019-04-11T05:14:25.541Z,75.56
2019-04-11T05:17:34.405Z,75.45
2019-04-11T05:20:41.644Z,75.86
2019-04-11T05:23:48.455Z,76.16
2019-04-11T05:26:55.800Z,74.73
2019-04-11T05:30:03.014Z,74.97
2019-04-11T05:33:10.124Z,76.15
2019-04-11T05:36:18.586Z,76.33
2019-04-11T05:39:25.654Z,75.31
2019-04-11T05:42:33.396Z,75.20
2019-04-11T05:45:40.505Z,75.19
2019-04-11T05:49:00.656Z,74.75
2019-04-11T05:52:10.268Z,73.14
2019-04-11T05:55:19.500Z,73.74
2019-04-11T05:58:30.301Z,73.59
2019-04-11T06:01:44.619Z,74.77
2019-04-11T06:04:57.810Z,73.11
2019-04-11T06:08:07.568Z,73.29
2019-04-11T06:11:54.612Z,73.02
2019-04-11T06:15:16.923Z,71.69
2019-04-11T06:18:52.699Z,72.13
2019-04-11T06:22:02.766Z,71.99
2019-04-11T06:25:11.629Z,72.23
2019-04-11T06:28:30.768Z,71.72
2019-04-11T06:32:06.011Z,73.89
2019-04-11T06:35:22.023Z,71.95
2019-04-11T06:38:42.872Z,73.35
2019-04-11T06:42:19.226Z,72.91
2019-04-11T06:46:03.430Z,72.27
2019-04-11T06:49:22.468Z,72.53
2019-04-11T06:52:29.727Z,73.20
2019-04-11T06:55:55.843Z,73.66
2019-04-11T06:59:06.320Z,72.02
2019-04-11T07:02:19.215Z,72.38
2019-04-11T07:05:24.696Z,71.58
2019-04-11T07:08:40.585Z,71.53
2019-04-11T07:11:50.973Z,71.46
2019-04-11T07:15:16.830Z,71.06
2019-04-11T07:18:41.442Z,70.05
2019-04-11T07:21:50.341Z,69.61
2019-04-11T07:25:20.225Z,68.62
2019-04-11T07:28:41.640Z,68.48
2019-04-11T07:32:11.690Z,68.71
2019-04-11T07:35:48.560Z,66.60
2019-04-11T07:38:59.247Z,68.06
2019-04-11T07:42:23.894Z,66.36
2019-04-11T07:45:58.190Z,66.05
2019-04-11T07:49:06.372Z,65.31
2019-04-11T07:52:15.536Z,64.74
2019-04-11T07:55:24.304Z,63.43
2019-04-11T07:58:42.595Z,62.85
2019-04-11T08:02:10.390Z,64.11
2019-04-11T08:05:38.996Z,62.81
2019-04-11T08:09:04.957Z,62.26
2019-04-11T08:12:15.650Z,61.93
2019-04-11T08:15:41.938Z,62.13
2019-04-11T08:19:15.309Z,61.85
2019-04-11T08:22:36.032Z,60.44
2019-04-11T08:26:17.952Z,60.79
2019-04-11T08:29:27.057Z,61.38
2019-04-11T08:32:42.073Z,59.21
2019-04-11T08:36:10.936Z,60.34
2019-04-11T08:39:22.851Z,57.75
2019-04-11T08:42:54.871Z,56.46
2019-04-11T08:46:06.981Z,58.24
2019-04-11T08:49:30.156Z,56.99
2019-04-11T08:52:56.112Z,57.58
2019-04-11T08:56:03.997Z,57.89
2019-04-11T08:59:43.994Z,57.70
2019-04-11T09:03:00.209Z,57.10
2019-04-11T09:06:10.776Z,57.68
2019-04-11T09:09:38.011Z,57.68
2019-04-11T09:12:53.163Z,57.92
2019-04-11T09:16:18.036Z,57.97
2019-04-11T09:19:45.203Z,57.65
2019-04-11T09:23:03.761Z,57.18
2019-04-11T09:26:32.012Z,56.05
2019-04-11T09:29:42.006Z,56.85
2019-04-11T09:33:22.689Z,56.73
2019-04-11T09:36:43.172Z,57.38
2019-04-11T09:40:12.089Z,56.67
2019-04-11T09:43:24.489Z,56.51
2019-04-11T09:47:03.434Z,57.03
2019-04-11T09:50:16.377Z,56.43
2019-04-11T09:53:23.270Z,56.63
2019-04-11T09:56:47.745Z,57.14
2019-04-11T10:00:14.572Z,56.93
2019-04-11T10:03:25.648Z,58.94
2019-04-11T10:06:50.357Z,57.32
2019-04-11T10:10:19.070Z,57.54
2019-04-11T10:13:45.035Z,57.38
2019-04-11T10:17:10.667Z,56.48
2019-04-11T10:20:18.771Z,56.79
2019-04-11T10:23:38.640Z,56.69
2019-04-11T10:26:50.368Z,57.14
2019-04-11T10:30:17.283Z,56.29
2019-04-11T10:33:55.517Z,55.91
2019-04-11T10:37:21.348Z,54.75
2019-04-11T10:40:56.627Z,53.91
2019-04-11T10:44:03.886Z,55.12
2019-04-11T10:47:17.971Z,54.67
2019-04-11T10:51:03.078Z,55.67
2019-04-11T10:54:11.360Z,53.26
2019-04-11T10:57:40.415Z,54.65
2019-04-11T11:01:12.295Z,55.00
2019-04-11T11:04:28.054Z,53.61
2019-04-11T11:07:35.207Z,52.88
2019-04-11T11:10:43.778Z,53.70
2019-04-11T11:14:02.328Z,54.11
2019-04-11T11:17:43.889Z,51.86
2019-04-11T11:21:00.625Z,52.76
2019-04-11T11:24:39.130Z,51.15
2019-04-11T11:27:43.759Z,54.09
2019-04-11T11:31:20.327Z,51.55
2019-04-11T11:34:32.538Z,52.20
2019-04-11T11:37:52.004Z,52.04
2019-04-11T11:41:16.602Z,53.41
2019-04-11T11:44:25.606Z,52.35
2019-04-11T11:48:17.345Z,51.41
2019-04-11T11:51:37.543Z,52.07
2019-04-11T11:54:51.514Z,52.04
2019-04-11T11:58:35.398Z,49.54
2019-04-11T12:01:50.757Z,50.45
2019-04-11T12:05:13.303Z,48.91
2019-04-11T12:08:30.779Z,50.23
2019-04-11T12:11:42.118Z,49.01
2019-04-11T12:15:08.078Z,50.91
2019-04-11T12:18:40.277Z,49.17
2019-04-11T12:21:47.631Z,49.83
2019-04-11T12:25:00.617Z,49.88
2019-04-11T12:28:30.131Z,50.65
2019-04-11T12:31:37.810Z,49.87
2019-04-11T12:35:04.063Z,46.78
2019-04-11T12:38:24.509Z,49.72
2019-04-11T12:41:49.954Z,49.59
2019-04-11T12:45:14.689Z,50.11
2019-04-11T12:48:23.715Z,48.67
2019-04-11T12:51:55.390Z,48.22
2019-04-11T12:55:02.403Z,48.40
2019-04-11T12:58:17.942Z,50.32
2019-04-11T13:01:55.954Z,50.86
2019-04-11T13:05:03.649Z,49.49
2019-04-11T13:08:28.659Z,49.38
2019-04-11T13:11:36.441Z,47.58
2019-04-11T13:14:52.436Z,49.37
2019-04-11T13:18:16.866Z,51.64
2019-04-11T13:21:34.948Z,49.80
2019-04-11T13:25:06.752Z,49.64
2019-04-11T13:28:14.391Z,49.52
2019-04-11T13:31:38.993Z,49.12
2019-04-11T13:34:47.202Z,49.54
2019-04-11T13:38:17.720Z,47.78
2019-04-11T13:41:42.420Z,50.54
2019-04-11T13:44:50.765Z,51.05
2019-04-11T13:48:15.349Z,52.56
2019-04-11T13:51:32.942Z,51.65
2019-04-11T13:54:58.788Z,50.19
2019-04-11T13:58:40.329Z,50.71
2019-04-11T14:01:47.374Z,51.40
2019-04-11T14:04:54.680Z,50.75
2019-04-11T14:08:01.712Z,51.68
2019-04-11T14:11:12.074Z,52.07
2019-04-11T14:14:22.071Z,51.75
2019-04-11T14:17:47.399Z,51.72
2019-04-11T14:21:01.232Z,53.01
2019-04-11T14:24:23.697Z,52.41
2019-04-11T14:27:32.365Z,51.73
2019-04-11T14:30:52.511Z,52.04
2019-04-11T14:34:15.558Z,54.47
2019-04-11T14:37:38.247Z,53.33
2019-04-11T14:41:02.155Z,51.59
2019-04-11T14:44:08.888Z,50.99
2019-04-11T14:47:48.923Z,51.55
2019-04-11T14:51:29.577Z,52.82
2019-04-11T14:54:49.288Z,50.05
2019-04-11T14:58:15.084Z,52.05
2019-04-11T15:01:27.921Z,52.34
2019-04-11T15:04:51.015Z,51.54
2019-04-11T15:07:59.358Z,51.72
2019-04-11T15:11:26.648Z,52.56
2019-04-11T15:14:55.481Z,53.73
2019-04-11T15:18:04.265Z,52.56
2019-04-11T15:21:41.038Z,52.26
2019-04-11T15:24:49.596Z,53.28
2019-04-11T15:28:08.104Z,52.93
2019-04-11T15:31:41.399Z,52.63
2019-04-11T15:34:53.529Z,53.80
2019-04-11T15:38:32.631Z,53.30
2019-04-11T15:41:40.929Z,53.22
2019-04-11T15:45:22.262Z,54.49
2019-04-11T15:49:03.520Z,51.98
2019-04-11T15:52:13.844Z,51.91
2019-04-11T15:55:58.056Z,52.15
2019-04-11T15:59:15.349Z,52.27
2019-04-11T16:02:36.417Z,52.75
2019-04-11T16:06:02.106Z,53.16
2019-04-11T16:09:14.708Z,53.33
2019-04-11T16:12:29.125Z,53.69
2019-04-11T16:15:36.452Z,54.30
2019-04-11T16:19:05.549Z,55.91
2019-04-11T16:22:30.539Z,54.34
2019-04-11T16:25:37.675Z,55.01
2019-04-11T16:29:00.864Z,54.78
2019-04-11T16:32:12.511Z,55.86
2019-04-11T16:35:32.833Z,55.33
2019-04-11T16:38:56.751Z,56.86
2019-04-11T16:42:15.381Z,56.48
2019-04-11T16:45:31.928Z,55.73
2019-04-11T16:48:43.788Z,56.74
2019-04-11T16:51:52.419Z,55.26
2019-04-11T16:55:00.965Z,56.59
2019-04-11T16:58:08.129Z,56.99
2019-04-11T17:01:17.274Z,55.19
2019-04-11T17:04:26.001Z,56.31
2019-04-11T17:07:53.880Z,57.07
2019-04-11T17:11:04.514Z,57.67
2019-04-11T17:14:12.666Z,57.14
2019-04-11T17:17:19.525Z,56.74
2019-04-11T17:20:28.001Z,55.82
2019-04-11T17:23:34.834Z,56.84
2019-04-11T17:26:42.037Z,56.32
2019-04-11T17:29:48.892Z,55.76
2019-04-11T17:32:56.187Z,57.39
2019-04-11T17:36:03.286Z,57.15
2019-04-11T17:39:12.943Z,57.40
2019-04-11T17:42:19.985Z,57.35
2019-04-11T17:45:27.028Z,57.49
2019-04-11T17:48:33.894Z,57.52
2019-04-11T17:51:42.809Z,58.13
2019-04-11T17:54:49.232Z,58.07
2019-04-11T17:57:57.660Z,58.82
2019-04-11T18:01:06.294Z,58.13
2019-04-11T18:04:14.126Z,57.29
2019-04-11T18:07:21.128Z,58.42
2019-04-11T18:10:28.014Z,57.61
2019-04-11T18:13:34.876Z,57.36
2019-04-11T18:16:44.821Z,57.53
2019-04-11T18:19:53.082Z,57.79
2019-04-11T18:23:01.175Z,58.41
2019-04-11T18:26:08.800Z,57.05
2019-04-11T18:29:16.692Z,58.01
2019-04-11T18:32:23.692Z,58.84
2019-04-11T18:35:31.968Z,58.92
2019-04-11T18:38:39.088Z,57.32
2019-04-11T18:41:45.985Z,58.19
2019-04-11T18:44:52.911Z,57.48
2019-04-11T18:47:59.841Z,57.57
2019-04-11T18:51:06.686Z,57.93
2019-04-11T18:54:17.473Z,58.31
2019-04-11T18:57:24.351Z,59.45
2019-04-11T19:00:31.158Z,59.17
2019-04-11T19:03:41.114Z,59.25
2019-04-11T19:06:46.671Z,59.08
2019-04-11T19:09:53.512Z,60.13
2019-04-11T19:13:00.370Z,59.59
2019-04-11T19:16:07.314Z,58.55
2019-04-11T19:19:18.498Z,58.99
2019-04-11T19:22:37.178Z,58.65
2019-04-11T19:25:33.489Z,59.57
2019-04-11T19:28:40.433Z,59.37
2019-04-11T19:31:47.234Z,60.51
2019-04-11T19:34:56.902Z,59.92
2019-04-11T19:38:03.750Z,59.19
2019-04-11T19:41:11.698Z,60.23
2019-04-11T19:44:19.367Z,58.80
2019-04-11T19:47:27.986Z,60.81
2019-04-11T19:50:35.491Z,59.48
2019-04-11T19:53:42.454Z,59.57
2019-04-11T19:57:02.615Z,58.65
2019-04-11T20:00:11.349Z,58.96
2019-04-11T20:03:19.283Z,59.04
2019-04-11T20:06:26.603Z,59.18
2019-04-11T20:09:33.507Z,59.10
2019-04-11T20:12:40.338Z,59.29
2019-04-11T20:15:47.365Z,59.27
2019-04-11T20:18:56.869Z,59.21
2019-04-11T20:22:02.954Z,59.29
2019-04-11T20:25:10.108Z,58.41
2019-04-11T20:28:19.882Z,59.33
2019-04-11T20:31:26.344Z,58.57
2019-04-11T20:34:33.469Z,58.97
2019-04-11T20:37:44.396Z,59.85
2019-04-11T20:40:52.583Z,58.33
2019-04-11T20:44:02.414Z,59.71
2019-04-11T20:47:09.406Z,59.83
2019-04-11T20:50:16.455Z,59.24
2019-04-11T20:53:23.474Z,59.49
2019-04-11T20:56:30.316Z,58.90
2019-04-11T20:59:41.243Z,59.77
2019-04-11T21:02:45.951Z,59.37
2019-04-11T21:05:52.894Z,59.90
2019-04-11T21:09:03.067Z,60.22
2019-04-11T21:12:11.901Z,60.60
2019-04-11T21:15:18.823Z,60.15
2019-04-11T21:18:26.326Z,60.21
2019-04-11T21:21:34.290Z,60.14
2019-04-11T21:24:41.394Z,59.69
2019-04-11T21:27:48.363Z,59.99
2019-04-11T21:30:59.897Z,60.42
2019-04-11T21:34:04.651Z,60.41
2019-04-11T21:37:13.960Z,60.70
2019-04-11T21:40:20.885Z,60.88
2019-04-11T21:43:27.813Z,60.36
2019-04-11T21:46:37.035Z,61.38
2019-04-11T21:49:43.259Z,61.35
2019-04-11T21:52:50.184Z,61.82
2019-04-11T21:55:57.190Z,61.78
2019-04-11T21:59:04.219Z,61.37
2019-04-11T22:02:12.405Z,61.57
2019-04-11T22:05:19.326Z,61.16
2019-04-11T22:08:26.264Z,62.17
2019-04-11T22:11:33.199Z,63.29
2019-04-11T22:14:41.967Z,63.27
2019-04-11T22:17:48.723Z,63.04
2019-04-11T22:20:55.755Z,62.54
2019-04-11T22:24:02.725Z,62.69
2019-04-11T22:27:11.729Z,62.92
2019-04-11T22:30:25.026Z,63.43
2019-04-11T22:34:04.823Z,64.71
2019-04-11T22:37:11.894Z,63.01
2019-04-11T22:40:18.885Z,63.43
2019-04-11T22:43:25.809Z,63.15
2019-04-11T22:46:32.759Z,64.03
2019-04-11T22:49:40.071Z,62.58
2019-04-11T22:52:47.073Z,61.79
2019-04-11T22:55:53.912Z,62.12
2019-04-11T22:59:00.836Z,61.56
2019-04-11T23:02:35.867Z,61.93
2019-04-11T23:05:46.541Z,62.52
2019-04-11T23:08:51.559Z,62.39
2019-04-11T23:11:58.454Z,62.62
2019-04-11T23:15:08.173Z,62.09
2019-04-11T23:18:15.316Z,62.12
2019-04-11T23:21:22.279Z,61.94
2019-04-11T23:24:29.296Z,63.03
2019-04-11T23:27:36.249Z,62.44
2019-04-11T23:30:43.258Z,62.44
2019-04-11T23:33:52.614Z,62.09
2019-04-11T23:36:59.917Z,63.44
2019-04-11T23:40:07.122Z,63.94
2019-04-11T23:43:15.343Z,63.76
2019-04-11T23:46:22.576Z,64.52
2019-04-11T23:49:31.337Z,63.82
2019-04-11T23:52:38.363Z,64.18
2019-04-11T23:55:45.384Z,64.34
2019-04-11T23:59:01.535Z,65.18
